sensor_id;sensor_type;location;lat;lon;timestamp;P1;durP1;ratioP1;P2;durP2;ratioP2
10142;SDS011;5112;54.088;13.446;2023-02-15T00:07:13;36.92;;;23.98;;
10142;SDS011;5112;54.088;13.446;2023-02-15T00:17:17;29.10;;;16.00;;
10142;SDS011;5112;54.088;13.446;2023-02-15T00:27:18;32.33;;;17.00;;
10142;SDS011;5112;54.088;13.446;2023-02-15T00:37:21;33.17;;;18.00;;
10142;SDS011;5112;54.088;13.446;2023-02-15T00:47:23;31.80;;;17.17;;
10142;SDS011;5112;54.088;13.446;2023-02-15T00:57:26;28.50;;;18.17;;
10142;SDS011;5112;54.088;13.446;2023-02-15T01:07:28;33.80;;;17.23;;
10142;SDS011;5112;54.088;13.446;2023-02-15T01:17:31;32.07;;;18.93;;
10142;SDS011;5112;54.088;13.446;2023-02-15T01:27:33;34.40;;;18.30;;
10142;SDS011;5112;54.088;13.446;2023-02-15T01:37:36;36.73;;;17.87;;
10142;SDS011;5112;54.088;13.446;2023-02-15T01:47:40;41.43;;;20.27;;
10142;SDS011;5112;54.088;13.446;2023-02-15T01:57:45;38.97;;;19.90;;
10142;SDS011;5112;54.088;13.446;2023-02-15T02:07:48;33.23;;;19.67;;
10142;SDS011;5112;54.088;13.446;2023-02-15T02:17:59;34.57;;;20.20;;
10142;SDS011;5112;54.088;13.446;2023-02-15T02:28:12;40.00;;;22.60;;
10142;SDS011;5112;54.088;13.446;2023-02-15T02:38:36;38.00;;;26.40;;
10142;SDS011;5112;54.088;13.446;2023-02-15T02:48:46;41.90;;;27.30;;
10142;SDS011;5112;54.088;13.446;2023-02-15T02:58:51;42.40;;;22.23;;
10142;SDS011;5112;54.088;13.446;2023-02-15T03:09:01;42.67;;;23.63;;
10142;SDS011;5112;54.088;13.446;2023-02-15T03:19:09;45.77;;;24.47;;
10142;SDS011;5112;54.088;13.446;2023-02-15T03:29:14;40.00;;;23.10;;
10142;SDS011;5112;54.088;13.446;2023-02-15T03:39:20;42.80;;;23.27;;
10142;SDS011;5112;54.088;13.446;2023-02-15T03:49:24;40.80;;;22.90;;
10142;SDS011;5112;54.088;13.446;2023-02-15T03:59:32;41.13;;;23.23;;
10142;SDS011;5112;54.088;13.446;2023-02-15T04:09:51;40.53;;;22.57;;
10142;SDS011;5112;54.088;13.446;2023-02-15T04:20:12;40.83;;;22.70;;
10142;SDS011;5112;54.088;13.446;2023-02-15T04:30:31;39.73;;;22.80;;
10142;SDS011;5112;54.088;13.446;2023-02-15T04:40:34;45.20;;;28.87;;
10142;SDS011;5112;54.088;13.446;2023-02-15T04:50:36;46.80;;;28.47;;
10142;SDS011;5112;54.088;13.446;2023-02-15T05:00:39;41.83;;;22.30;;
10142;SDS011;5112;54.088;13.446;2023-02-15T05:10:40;41.10;;;22.03;;
10142;SDS011;5112;54.088;13.446;2023-02-15T05:20:43;41.93;;;22.83;;
10142;SDS011;5112;54.088;13.446;2023-02-15T05:30:45;44.17;;;22.50;;
10142;SDS011;5112;54.088;13.446;2023-02-15T05:40:49;38.17;;;21.83;;
10142;SDS011;5112;54.088;13.446;2023-02-15T05:50:58;45.57;;;27.87;;
10142;SDS011;5112;54.088;13.446;2023-02-15T06:01:07;41.60;;;22.87;;
10142;SDS011;5112;54.088;13.446;2023-02-15T06:11:10;38.60;;;21.60;;
10142;SDS011;5112;54.088;13.446;2023-02-15T06:21:13;35.33;;;20.37;;
10142;SDS011;5112;54.088;13.446;2023-02-15T06:31:15;33.10;;;19.13;;
10142;SDS011;5112;54.088;13.446;2023-02-15T06:41:18;28.93;;;16.43;;
10142;SDS011;5112;54.088;13.446;2023-02-15T06:51:19;26.63;;;16.13;;
10142;SDS011;5112;54.088;13.446;2023-02-15T07:01:22;33.23;;;16.70;;
10142;SDS011;5112;54.088;13.446;2023-02-15T07:11:24;31.30;;;18.07;;
10142;SDS011;5112;54.088;13.446;2023-02-15T07:21:44;43.73;;;18.30;;
10142;SDS011;5112;54.088;13.446;2023-02-15T07:31:46;45.80;;;21.93;;
10142;SDS011;5112;54.088;13.446;2023-02-15T07:41:49;42.63;;;22.27;;
10142;SDS011;5112;54.088;13.446;2023-02-15T07:51:51;48.20;;;25.30;;
10142;SDS011;5112;54.088;13.446;2023-02-15T08:01:54;64.90;;;27.80;;
10142;SDS011;5112;54.088;13.446;2023-02-15T08:11:56;59.47;;;26.93;;
10142;SDS011;5112;54.088;13.446;2023-02-15T08:21:59;47.33;;;24.20;;
10142;SDS011;5112;54.088;13.446;2023-02-15T08:32:03;66.50;;;27.87;;
10142;SDS011;5112;54.088;13.446;2023-02-15T08:42:08;70.27;;;25.40;;
10142;SDS011;5112;54.088;13.446;2023-02-15T08:52:09;57.57;;;24.93;;
10142;SDS011;5112;54.088;13.446;2023-02-15T09:02:12;58.87;;;26.10;;
10142;SDS011;5112;54.088;13.446;2023-02-15T09:12:14;53.80;;;25.23;;
10142;SDS011;5112;54.088;13.446;2023-02-15T09:22:17;54.17;;;23.40;;
10142;SDS011;5112;54.088;13.446;2023-02-15T09:32:18;50.03;;;25.13;;
10142;SDS011;5112;54.088;13.446;2023-02-15T09:42:30;58.70;;;27.30;;
10142;SDS011;5112;54.088;13.446;2023-02-15T09:53:10;51.57;;;26.07;;
10142;SDS011;5112;54.088;13.446;2023-02-15T10:03:36;55.93;;;26.53;;
10142;SDS011;5112;54.088;13.446;2023-02-15T10:13:57;58.83;;;27.53;;
10142;SDS011;5112;54.088;13.446;2023-02-15T10:24:16;56.53;;;26.73;;
10142;SDS011;5112;54.088;13.446;2023-02-15T10:34:27;55.60;;;27.83;;
10142;SDS011;5112;54.088;13.446;2023-02-15T10:44:42;56.73;;;27.97;;
10142;SDS011;5112;54.088;13.446;2023-02-15T10:54:54;70.20;;;31.70;;
10142;SDS011;5112;54.088;13.446;2023-02-15T11:05:10;62.33;;;30.17;;
10142;SDS011;5112;54.088;13.446;2023-02-15T11:15:24;61.60;;;29.63;;
10142;SDS011;5112;54.088;13.446;2023-02-15T11:25:33;67.13;;;31.80;;
10142;SDS011;5112;54.088;13.446;2023-02-15T11:35:47;64.00;;;31.67;;
10142;SDS011;5112;54.088;13.446;2023-02-15T11:45:53;66.53;;;32.53;;
10142;SDS011;5112;54.088;13.446;2023-02-15T11:55:55;58.83;;;30.13;;
10142;SDS011;5112;54.088;13.446;2023-02-15T12:06:00;58.53;;;30.73;;
10142;SDS011;5112;54.088;13.446;2023-02-15T12:16:04;67.57;;;33.00;;
10142;SDS011;5112;54.088;13.446;2023-02-15T12:26:13;67.93;;;32.47;;
10142;SDS011;5112;54.088;13.446;2023-02-15T12:36:17;70.10;;;33.93;;
10142;SDS011;5112;54.088;13.446;2023-02-15T12:46:22;69.03;;;33.03;;
10142;SDS011;5112;54.088;13.446;2023-02-15T12:56:26;62.43;;;32.17;;
10142;SDS011;5112;54.088;13.446;2023-02-15T13:06:32;74.23;;;34.83;;
10142;SDS011;5112;54.088;13.446;2023-02-15T13:16:35;72.43;;;33.23;;
10142;SDS011;5112;54.088;13.446;2023-02-15T13:26:41;68.50;;;33.57;;
10142;SDS011;5112;54.088;13.446;2023-02-15T13:36:49;59.90;;;32.40;;
10142;SDS011;5112;54.088;13.446;2023-02-15T13:47:02;65.33;;;32.40;;
10142;SDS011;5112;54.088;13.446;2023-02-15T14:07:51;61.13;;;31.43;;
10142;SDS011;5112;54.088;13.446;2023-02-15T14:18:01;59.33;;;31.37;;
10142;SDS011;5112;54.088;13.446;2023-02-15T14:28:14;58.87;;;30.67;;
10142;SDS011;5112;54.088;13.446;2023-02-15T14:38:24;59.43;;;32.27;;
10142;SDS011;5112;54.088;13.446;2023-02-15T14:48:40;57.97;;;31.00;;
10142;SDS011;5112;54.088;13.446;2023-02-15T14:58:57;57.47;;;30.97;;
10142;SDS011;5112;54.088;13.446;2023-02-15T15:09:08;54.53;;;30.57;;
10142;SDS011;5112;54.088;13.446;2023-02-15T15:19:13;54.63;;;31.80;;
10142;SDS011;5112;54.088;13.446;2023-02-15T15:40:51;52.73;;;29.47;;
10142;SDS011;5112;54.088;13.446;2023-02-15T15:51:05;51.87;;;31.23;;
10142;SDS011;5112;54.088;13.446;2023-02-15T16:01:13;51.37;;;28.63;;
10142;SDS011;5112;54.088;13.446;2023-02-15T16:11:16;59.97;;;32.37;;
10142;SDS011;5112;54.088;13.446;2023-02-15T16:21:26;60.17;;;31.60;;
10142;SDS011;5112;54.088;13.446;2023-02-15T16:31:31;64.53;;;37.10;;
10142;SDS011;5112;54.088;13.446;2023-02-15T16:41:35;55.03;;;29.40;;
10142;SDS011;5112;54.088;13.446;2023-02-15T16:51:37;58.47;;;31.63;;
10142;SDS011;5112;54.088;13.446;2023-02-15T17:01:45;53.27;;;28.03;;
10142;SDS011;5112;54.088;13.446;2023-02-15T17:11:46;54.50;;;34.03;;
10142;SDS011;5112;54.088;13.446;2023-02-15T17:21:51;55.67;;;28.63;;
10142;SDS011;5112;54.088;13.446;2023-02-15T17:31:55;47.93;;;28.50;;
10142;SDS011;5112;54.088;13.446;2023-02-15T17:41:59;67.00;;;41.10;;
10142;SDS011;5112;54.088;13.446;2023-02-15T17:52:01;52.30;;;28.90;;
10142;SDS011;5112;54.088;13.446;2023-02-15T18:02:07;51.37;;;28.70;;
10142;SDS011;5112;54.088;13.446;2023-02-15T18:12:29;60.97;;;32.90;;
10142;SDS011;5112;54.088;13.446;2023-02-15T18:22:33;57.87;;;31.17;;
10142;SDS011;5112;54.088;13.446;2023-02-15T18:32:35;61.20;;;33.57;;
10142;SDS011;5112;54.088;13.446;2023-02-15T18:42:40;61.57;;;32.10;;
10142;SDS011;5112;54.088;13.446;2023-02-15T18:52:46;58.60;;;29.97;;
10142;SDS011;5112;54.088;13.446;2023-02-15T19:02:51;52.77;;;28.93;;
10142;SDS011;5112;54.088;13.446;2023-02-15T19:12:54;54.13;;;26.17;;
10142;SDS011;5112;54.088;13.446;2023-02-15T19:22:57;44.33;;;23.20;;
10142;SDS011;5112;54.088;13.446;2023-02-15T19:33:01;48.33;;;24.23;;
10142;SDS011;5112;54.088;13.446;2023-02-15T19:43:08;50.27;;;26.37;;
10142;SDS011;5112;54.088;13.446;2023-02-15T19:53:18;75.80;;;28.97;;
10142;SDS011;5112;54.088;13.446;2023-02-15T20:03:23;61.77;;;28.77;;
10142;SDS011;5112;54.088;13.446;2023-02-15T20:13:25;64.03;;;30.17;;
10142;SDS011;5112;54.088;13.446;2023-02-15T20:23:30;66.47;;;30.73;;
10142;SDS011;5112;54.088;13.446;2023-02-15T20:33:34;62.03;;;30.20;;
10142;SDS011;5112;54.088;13.446;2023-02-15T20:43:37;79.03;;;32.57;;
10142;SDS011;5112;54.088;13.446;2023-02-15T20:53:39;67.30;;;30.30;;
10142;SDS011;5112;54.088;13.446;2023-02-15T21:03:42;81.63;;;29.10;;
10142;SDS011;5112;54.088;13.446;2023-02-15T21:13:44;70.97;;;28.57;;
10142;SDS011;5112;54.088;13.446;2023-02-15T21:23:48;50.50;;;26.53;;
10142;SDS011;5112;54.088;13.446;2023-02-15T21:33:50;54.07;;;27.60;;
10142;SDS011;5112;54.088;13.446;2023-02-15T21:43:53;60.10;;;27.53;;
10142;SDS011;5112;54.088;13.446;2023-02-15T21:54:13;67.50;;;28.23;;
10142;SDS011;5112;54.088;13.446;2023-02-15T22:04:18;68.47;;;35.38;;
10142;SDS011;5112;54.088;13.446;2023-02-15T22:14:32;52.77;;;29.80;;
10142;SDS011;5112;54.088;13.446;2023-02-15T22:24:37;53.07;;;28.23;;
10142;SDS011;5112;54.088;13.446;2023-02-15T22:34:39;61.30;;;27.40;;
10142;SDS011;5112;54.088;13.446;2023-02-15T22:44:42;49.60;;;26.90;;
10142;SDS011;5112;54.088;13.446;2023-02-15T22:54:44;53.17;;;27.37;;
10142;SDS011;5112;54.088;13.446;2023-02-15T23:04:47;52.17;;;28.10;;
10142;SDS011;5112;54.088;13.446;2023-02-15T23:14:49;44.73;;;28.03;;
10142;SDS011;5112;54.088;13.446;2023-02-15T23:24:52;54.60;;;30.57;;
10142;SDS011;5112;54.088;13.446;2023-02-15T23:34:54;56.17;;;30.07;;
10142;SDS011;5112;54.088;13.446;2023-02-15T23:44:57;48.50;;;28.03;;
10142;SDS011;5112;54.088;13.446;2023-02-15T23:54:59;52.53;;;28.30;;
